createdAt,value
2018-07-12T00:00:35.942Z,64.09
2018-07-12T00:01:35.916Z,64.18
2018-07-12T00:02:35.986Z,63.99
2018-07-12T00:03:35.879Z,63.89
2018-07-12T00:04:35.856Z,63.70
2018-07-12T00:05:35.822Z,63.99
2018-07-12T00:06:35.843Z,63.32
2018-07-12T00:07:35.758Z,63.41
2018-07-12T00:08:35.734Z,63.51
2018-07-12T00:09:35.712Z,63.70
2018-07-12T00:10:35.730Z,64.09
2018-07-12T00:11:35.711Z,63.51
2018-07-12T00:12:35.637Z,63.51
2018-07-12T00:13:35.702Z,63.32
2018-07-12T00:14:35.581Z,63.60
2018-07-12T00:15:35.552Z,63.41
2018-07-12T00:16:35.533Z,63.22
2018-07-12T00:17:35.499Z,63.22
2018-07-12T00:18:35.499Z,63.32
2018-07-12T00:19:35.506Z,63.02
2018-07-12T00:20:35.413Z,63.12
2018-07-12T00:21:35.393Z,63.02
2018-07-12T00:22:35.380Z,63.22
2018-07-12T00:23:35.383Z,63.60
2018-07-12T00:24:35.314Z,63.22
2018-07-12T00:25:35.295Z,63.32
2018-07-12T00:26:35.267Z,63.70
2018-07-12T00:27:35.342Z,63.60
2018-07-12T00:28:35.217Z,63.41
2018-07-12T00:29:35.183Z,63.51
2018-07-12T00:30:35.152Z,63.70
2018-07-12T00:31:35.131Z,63.41
2018-07-12T00:32:35.098Z,64.09
2018-07-12T00:33:35.108Z,63.99
2018-07-12T00:34:35.060Z,63.79
2018-07-12T00:35:35.076Z,64.95
2018-07-12T00:36:35.013Z,64.66
2018-07-12T00:37:34.972Z,65.05
2018-07-12T00:38:34.948Z,64.76
2018-07-12T00:39:34.920Z,64.28
2018-07-12T00:40:36.544Z,64.56
2018-07-12T00:41:34.873Z,63.70
2018-07-12T00:42:34.839Z,64.28
2018-07-12T00:43:34.847Z,63.89
2018-07-12T00:44:34.871Z,63.99
2018-07-12T00:45:34.760Z,64.09
2018-07-12T00:46:34.752Z,63.99
2018-07-12T00:47:34.716Z,63.70
2018-07-12T00:48:34.688Z,63.60
2018-07-12T00:49:34.805Z,63.41
2018-07-12T00:50:34.643Z,63.22
2018-07-12T00:51:34.606Z,63.51
2018-07-12T00:52:34.578Z,63.12
2018-07-12T00:53:34.562Z,63.02
2018-07-12T00:54:34.529Z,63.32
2018-07-12T00:55:34.520Z,62.64
2018-07-12T00:56:34.510Z,62.55
2018-07-12T00:57:34.450Z,62.35
2018-07-12T00:58:34.464Z,62.74
2018-07-12T00:59:34.404Z,62.64
2018-07-12T01:00:34.399Z,62.64
2018-07-12T01:01:34.402Z,62.55
2018-07-12T01:02:34.331Z,62.61
2018-07-12T01:03:34.292Z,62.04
2018-07-12T01:04:34.276Z,61.94
2018-07-12T01:05:34.287Z,61.97
2018-07-12T01:06:34.219Z,62.04
2018-07-12T01:07:34.199Z,62.04
2018-07-12T01:08:34.173Z,61.84
2018-07-12T01:09:34.263Z,61.46
2018-07-12T01:10:34.119Z,61.75
2018-07-12T01:11:34.085Z,61.30
2018-07-12T01:12:34.062Z,61.46
2018-07-12T01:13:34.041Z,61.08
2018-07-12T01:14:33.999Z,61.36
2018-07-12T01:15:33.990Z,61.27
2018-07-12T01:16:33.950Z,61.55
2018-07-12T01:17:34.016Z,61.55
2018-07-12T01:18:33.916Z,61.55
2018-07-12T01:19:33.872Z,61.36
2018-07-12T01:20:33.850Z,61.65
2018-07-12T01:21:33.930Z,61.75
2018-07-12T01:22:33.791Z,61.75
2018-07-12T01:23:33.770Z,61.84
2018-07-12T01:24:33.806Z,61.75
2018-07-12T01:25:33.713Z,61.55
2018-07-12T01:26:33.691Z,61.84
2018-07-12T01:27:33.687Z,61.75
2018-07-12T01:28:33.706Z,61.75
2018-07-12T01:29:33.622Z,61.84
2018-07-12T01:30:33.636Z,61.94
2018-07-12T01:31:33.640Z,62.32
2018-07-12T01:32:33.562Z,62.42
2018-07-12T01:33:33.559Z,62.42
2018-07-12T01:34:33.570Z,63.57
2018-07-12T01:35:33.462Z,64.72
2018-07-12T01:36:33.569Z,64.34
2018-07-12T01:37:33.400Z,64.53
2018-07-12T01:38:33.386Z,65.11
2018-07-12T01:39:33.392Z,65.20
2018-07-12T01:40:33.328Z,65.01
2018-07-12T01:41:33.309Z,65.40
2018-07-12T01:42:33.296Z,65.20
2018-07-12T01:43:33.240Z,65.69
2018-07-12T01:44:33.218Z,65.78
2018-07-12T01:45:33.213Z,65.88
2018-07-12T01:46:33.160Z,65.88
2018-07-12T01:47:33.141Z,65.30
2018-07-12T01:48:34.063Z,65.49
2018-07-12T01:49:33.148Z,65.69
2018-07-12T01:50:33.055Z,65.40
2018-07-12T01:51:33.074Z,64.82
2018-07-12T01:52:33.005Z,64.82
2018-07-12T01:53:32.992Z,65.40
2018-07-12T01:54:32.982Z,65.78
2018-07-12T01:55:32.995Z,65.97
2018-07-12T01:56:32.913Z,65.69
2018-07-12T01:57:32.908Z,65.88
2018-07-12T01:58:32.905Z,66.26
2018-07-12T01:59:32.925Z,66.74
2018-07-12T02:00:32.871Z,66.55
2018-07-12T02:01:32.846Z,66.74
2018-07-12T02:02:32.751Z,66.64
2018-07-12T02:03:32.870Z,66.55
2018-07-12T02:04:32.787Z,66.55
2018-07-12T02:05:32.662Z,66.26
2018-07-12T02:06:32.671Z,66.46
2018-07-12T02:07:32.662Z,66.13
2018-07-12T02:08:32.612Z,65.88
2018-07-12T02:09:32.563Z,65.59
2018-07-12T02:10:32.541Z,66.07
2018-07-12T02:11:32.535Z,65.40
2018-07-12T02:12:32.475Z,65.27
2018-07-12T02:13:32.460Z,65.75
2018-07-12T02:14:32.425Z,65.75
2018-07-12T02:15:32.398Z,65.46
2018-07-12T02:16:32.424Z,65.94
2018-07-12T02:17:32.383Z,65.84
2018-07-12T02:18:32.318Z,65.94
2018-07-12T02:19:32.329Z,66.13
2018-07-12T02:20:32.277Z,66.13
2018-07-12T02:21:32.243Z,66.23
2018-07-12T02:22:32.209Z,66.42
2018-07-12T02:23:32.182Z,66.23
2018-07-12T02:24:32.157Z,66.03
2018-07-12T02:25:32.187Z,66.33
2018-07-12T02:26:32.108Z,66.13
2018-07-12T02:27:32.133Z,66.03
2018-07-12T02:28:32.059Z,66.13
2018-07-12T02:29:32.023Z,65.46
2018-07-12T02:30:32.046Z,65.36
2018-07-12T02:31:31.979Z,65.84
2018-07-12T02:32:31.944Z,65.72
2018-07-12T02:33:31.918Z,65.72
2018-07-12T02:34:31.901Z,65.52
2018-07-12T02:35:31.874Z,65.72
2018-07-12T02:36:31.830Z,65.62
2018-07-12T02:37:31.812Z,65.72
2018-07-12T02:38:31.792Z,65.52
2018-07-12T02:39:31.760Z,65.33
2018-07-12T02:40:31.741Z,65.62
2018-07-12T02:41:31.718Z,66.00
2018-07-12T02:42:31.675Z,65.72
2018-07-12T02:43:31.647Z,65.23
2018-07-12T02:44:31.626Z,65.05
2018-07-12T02:45:31.597Z,64.85
2018-07-12T02:46:31.565Z,64.85
2018-07-12T02:47:31.544Z,64.95
2018-07-12T02:48:31.514Z,64.28
2018-07-12T02:49:31.491Z,64.18
2018-07-12T02:50:31.500Z,64.28
2018-07-12T02:51:31.434Z,64.28
2018-07-12T02:52:31.436Z,63.79
2018-07-12T02:53:31.387Z,63.89
2018-07-12T02:54:31.357Z,64.09
2018-07-12T02:55:31.329Z,64.18
2018-07-12T02:56:31.298Z,63.79
2018-07-12T02:57:31.268Z,64.18
2018-07-12T02:58:31.251Z,63.89
2018-07-12T02:59:31.236Z,63.99
2018-07-12T03:00:31.196Z,63.89
2018-07-12T03:01:31.169Z,64.18
2018-07-12T03:02:31.182Z,64.05
2018-07-12T03:03:31.110Z,63.99
2018-07-12T03:04:31.095Z,64.09
2018-07-12T03:05:31.118Z,63.03
2018-07-12T03:06:31.029Z,63.99
2018-07-12T03:07:31.001Z,64.05
2018-07-12T03:08:31.002Z,63.22
2018-07-12T03:09:30.949Z,63.96
2018-07-12T03:10:30.921Z,63.96
2018-07-12T03:11:30.895Z,63.76
2018-07-12T03:12:30.872Z,63.96
2018-07-12T03:13:30.846Z,63.96
2018-07-12T03:14:30.814Z,63.67
2018-07-12T03:15:30.782Z,63.86
2018-07-12T03:16:30.793Z,63.86
2018-07-12T03:17:30.736Z,64.05
2018-07-12T03:18:30.710Z,63.96
2018-07-12T03:19:30.741Z,63.99
2018-07-12T03:20:30.648Z,63.96
2018-07-12T03:21:30.689Z,63.67
2018-07-12T03:22:30.627Z,63.96
2018-07-12T03:23:30.581Z,64.56
2018-07-12T03:24:30.557Z,64.43
2018-07-12T03:25:30.560Z,64.43
2018-07-12T03:26:30.535Z,64.92
2018-07-12T03:27:30.464Z,64.82
2018-07-12T03:28:30.485Z,64.53
2018-07-12T03:29:30.408Z,64.53
2018-07-12T03:30:30.382Z,65.01
2018-07-12T03:31:30.378Z,65.11
2018-07-12T03:32:30.328Z,64.43
2018-07-12T03:33:30.294Z,64.25
2018-07-12T03:34:30.285Z,64.43
2018-07-12T03:35:30.241Z,64.25
2018-07-12T03:36:30.228Z,64.15
2018-07-12T03:37:30.191Z,64.25
2018-07-12T03:38:30.220Z,64.25
2018-07-12T03:39:30.134Z,64.15
2018-07-12T03:40:30.139Z,64.05
2018-07-12T03:41:30.086Z,63.96
2018-07-12T03:42:30.073Z,63.48
2018-07-12T03:43:30.027Z,63.76
2018-07-12T03:44:30.010Z,63.96
2018-07-12T03:45:29.985Z,64.05
2018-07-12T03:46:29.943Z,63.86
2018-07-12T03:47:29.914Z,64.25
2018-07-12T03:48:29.904Z,64.53
2018-07-12T03:49:29.914Z,64.43
2018-07-12T03:50:29.847Z,64.43
2018-07-12T03:51:29.830Z,64.34
2018-07-12T03:52:29.825Z,65.01
2018-07-12T03:53:29.749Z,64.53
2018-07-12T03:54:29.757Z,64.63
2018-07-12T03:55:29.706Z,64.63
2018-07-12T03:56:29.675Z,64.34
2018-07-12T03:57:29.648Z,64.82
2018-07-12T03:58:29.617Z,64.92
2018-07-12T03:59:29.597Z,64.53
2018-07-12T04:00:29.596Z,64.53
2018-07-12T04:01:29.534Z,64.34
2018-07-12T04:02:29.504Z,64.43
2018-07-12T04:03:29.494Z,64.53
2018-07-12T04:04:29.455Z,64.34
2018-07-12T04:05:29.427Z,64.43
2018-07-12T04:06:29.395Z,64.34
2018-07-12T04:07:29.371Z,64.34
2018-07-12T04:08:29.350Z,64.53
2018-07-12T04:09:29.320Z,65.11
2018-07-12T04:10:29.287Z,64.72
2018-07-12T04:11:29.263Z,64.82
2018-07-12T04:12:29.238Z,64.72
2018-07-12T04:13:29.206Z,65.20
2018-07-12T04:14:29.182Z,65.30
2018-07-12T04:15:29.154Z,65.30
2018-07-12T04:16:29.128Z,65.11
2018-07-12T04:17:29.100Z,65.11
2018-07-12T04:18:29.070Z,65.20
2018-07-12T04:19:29.047Z,64.92
2018-07-12T04:20:29.017Z,65.30
2018-07-12T04:21:28.997Z,65.20
2018-07-12T04:22:28.974Z,65.20
2018-07-12T04:23:28.944Z,65.30
2018-07-12T04:24:28.946Z,65.59
2018-07-12T04:25:28.887Z,65.59
2018-07-12T04:26:28.897Z,65.68
2018-07-12T04:27:28.831Z,65.88
2018-07-12T04:28:28.830Z,65.97
2018-07-12T04:29:28.779Z,65.68
2018-07-12T04:30:28.748Z,65.59
2018-07-12T04:31:28.720Z,65.78
2018-07-12T04:32:28.692Z,65.68
2018-07-12T04:33:28.693Z,66.06
2018-07-12T04:34:28.638Z,66.10
2018-07-12T04:35:28.665Z,66.06
2018-07-12T04:36:28.595Z,66.16
2018-07-12T04:37:28.560Z,66.39
2018-07-12T04:38:28.531Z,66.83
2018-07-12T04:39:28.508Z,66.93
2018-07-12T04:40:28.475Z,66.35
2018-07-12T04:41:28.445Z,66.96
2018-07-12T04:42:28.445Z,66.77
2018-07-12T04:43:28.391Z,67.22
2018-07-12T04:44:28.363Z,67.06
2018-07-12T04:45:28.368Z,66.96
2018-07-12T04:46:28.318Z,67.25
2018-07-12T04:47:28.290Z,66.96
2018-07-12T04:48:28.256Z,67.63
2018-07-12T04:49:28.236Z,67.54
2018-07-12T04:50:28.201Z,67.54
2018-07-12T04:51:28.185Z,68.12
2018-07-12T04:52:28.148Z,67.92
2018-07-12T04:53:28.120Z,67.44
2018-07-12T04:54:28.103Z,68.12
2018-07-12T04:55:28.073Z,68.40
2018-07-12T04:56:28.037Z,68.12
2018-07-12T04:57:28.027Z,68.82
2018-07-12T04:58:28.072Z,68.73
2018-07-12T04:59:27.970Z,68.82
2018-07-12T05:00:27.964Z,69.20
2018-07-12T05:01:28.001Z,68.98
2018-07-12T05:02:27.875Z,68.50
2018-07-12T05:03:27.890Z,69.46
2018-07-12T05:04:27.825Z,69.30
2018-07-12T05:05:27.801Z,69.87
2018-07-12T05:06:27.776Z,69.11
2018-07-12T05:07:27.826Z,69.01
2018-07-12T05:08:27.725Z,68.05
2018-07-12T05:09:27.693Z,69.01
2018-07-12T05:10:27.666Z,69.20
2018-07-12T05:11:27.634Z,69.59
2018-07-12T05:12:27.624Z,69.78
2018-07-12T05:13:27.626Z,69.68
2018-07-12T05:14:27.556Z,69.87
2018-07-12T05:15:27.579Z,70.36
2018-07-12T05:16:27.547Z,70.36
2018-07-12T05:17:27.478Z,70.10
2018-07-12T05:18:27.461Z,69.43
2018-07-12T05:19:27.438Z,69.91
2018-07-12T05:20:27.407Z,69.97
2018-07-12T05:21:27.384Z,69.81
2018-07-12T05:22:27.376Z,70.55
2018-07-12T05:23:27.330Z,69.91
2018-07-12T05:24:27.300Z,70.74
2018-07-12T05:25:27.263Z,69.87
2018-07-12T05:26:27.257Z,70.74
2018-07-12T05:27:27.246Z,70.36
2018-07-12T05:28:27.189Z,70.07
2018-07-12T05:29:27.158Z,69.59
2018-07-12T05:30:27.138Z,70.26
2018-07-12T05:31:27.179Z,70.26
2018-07-12T05:32:27.224Z,69.72
2018-07-12T05:33:27.060Z,70.01
2018-07-12T05:34:27.047Z,70.58
2018-07-12T05:35:27.005Z,70.10
2018-07-12T05:36:27.000Z,70.29
2018-07-12T05:37:26.982Z,71.73
2018-07-12T05:38:26.978Z,71.35
2018-07-12T05:39:26.917Z,71.16
2018-07-12T05:40:26.882Z,71.51
2018-07-12T05:41:26.862Z,71.35
2018-07-12T05:42:26.830Z,71.16
2018-07-12T05:43:26.795Z,71.25
2018-07-12T05:44:26.802Z,70.68
2018-07-12T05:45:26.751Z,70.68
2018-07-12T05:46:26.732Z,70.49
2018-07-12T05:47:26.688Z,70.20
2018-07-12T05:48:26.668Z,70.78
2018-07-12T05:49:29.677Z,70.17
2018-07-12T05:50:26.711Z,70.07
2018-07-12T05:51:26.589Z,69.97
2018-07-12T05:52:26.574Z,70.07
2018-07-12T05:53:26.644Z,69.49
2018-07-12T05:54:26.508Z,69.40
2018-07-12T05:55:26.478Z,68.82
2018-07-12T05:56:26.480Z,69.78
2018-07-12T05:57:26.471Z,69.07
2018-07-12T05:58:26.408Z,68.69
2018-07-12T05:59:26.400Z,69.26
2018-07-12T06:00:26.352Z,68.21
2018-07-12T06:01:26.345Z,68.50
2018-07-12T06:02:26.323Z,69.17
2018-07-12T06:03:29.108Z,68.59
2018-07-12T06:04:26.250Z,68.53
2018-07-12T06:05:26.223Z,68.82
2018-07-12T06:06:28.118Z,68.63
2018-07-12T06:07:26.178Z,69.40
2018-07-12T06:08:26.155Z,69.40
2018-07-12T06:09:26.134Z,69.40
2018-07-12T06:10:26.100Z,69.40
2018-07-12T06:11:26.070Z,69.20
2018-07-12T06:12:26.039Z,69.87
2018-07-12T06:13:26.016Z,69.68
2018-07-12T06:14:25.979Z,70.64
2018-07-12T06:15:26.045Z,70.84
2018-07-12T06:16:25.929Z,70.78
2018-07-12T06:17:25.914Z,70.29
2018-07-12T06:18:25.871Z,70.26
2018-07-12T06:19:25.845Z,70.36
2018-07-12T06:20:25.824Z,70.55
2018-07-12T06:21:25.802Z,69.20
2018-07-12T06:22:25.777Z,69.40
2018-07-12T06:23:25.753Z,69.97
2018-07-12T06:24:25.778Z,69.97
2018-07-12T06:25:25.693Z,70.49
2018-07-12T06:26:25.689Z,71.45
2018-07-12T06:27:25.650Z,71.03
2018-07-12T06:28:25.622Z,70.68
2018-07-12T06:29:25.613Z,71.64
2018-07-12T06:30:25.571Z,70.87
2018-07-12T06:31:25.541Z,71.35
2018-07-12T06:32:25.516Z,71.93
2018-07-12T06:33:25.533Z,71.55
2018-07-12T06:34:25.485Z,71.73
2018-07-12T06:35:25.432Z,72.12
2018-07-12T06:36:25.454Z,71.19
2018-07-12T06:37:25.379Z,71.29
2018-07-12T06:38:25.347Z,71.48
2018-07-12T06:39:25.373Z,71.67
2018-07-12T06:40:25.300Z,72.06
2018-07-12T06:41:25.274Z,72.92
2018-07-12T06:42:25.288Z,71.29
2018-07-12T06:43:25.226Z,70.72
2018-07-12T06:44:25.203Z,71.29
2018-07-12T06:45:25.188Z,71.67
2018-07-12T06:46:25.164Z,71.48
2018-07-12T06:47:25.117Z,72.38
2018-07-12T06:48:25.095Z,73.25
2018-07-12T06:49:25.091Z,74.02
2018-07-12T06:50:25.042Z,73.31
2018-07-12T06:51:25.014Z,73.60
2018-07-12T06:52:25.000Z,72.92
2018-07-12T06:53:24.974Z,71.58
2018-07-12T06:54:24.954Z,71.67
2018-07-12T06:55:24.916Z,72.83
2018-07-12T06:56:24.971Z,72.34
2018-07-12T06:57:24.874Z,71.58
2018-07-12T06:58:24.840Z,71.00
2018-07-12T06:59:24.816Z,70.62
2018-07-12T07:00:24.794Z,70.39
2018-07-12T07:01:24.761Z,71.16
2018-07-12T07:02:24.754Z,71.16
2018-07-12T07:03:24.719Z,71.77
2018-07-12T07:04:24.691Z,71.29
2018-07-12T07:05:24.690Z,71.58
2018-07-12T07:06:24.642Z,71.10
2018-07-12T07:07:24.616Z,71.77
2018-07-12T07:08:24.593Z,71.96
2018-07-12T07:09:24.569Z,71.58
2018-07-12T07:10:24.567Z,72.16
2018-07-12T07:11:24.550Z,71.77
2018-07-12T07:12:24.491Z,72.34
2018-07-12T07:13:24.455Z,71.67
2018-07-12T07:14:24.439Z,71.87
2018-07-12T07:15:24.458Z,72.06
2018-07-12T07:16:24.392Z,71.77
2018-07-12T07:17:24.365Z,71.10
2018-07-12T07:18:24.350Z,71.58
2018-07-12T07:19:24.303Z,71.48
2018-07-12T07:20:24.289Z,71.67
2018-07-12T07:21:24.258Z,71.58
2018-07-12T07:22:24.223Z,71.39
2018-07-12T07:23:24.205Z,71.39
2018-07-12T07:24:24.177Z,71.58
2018-07-12T07:25:24.187Z,70.52
2018-07-12T07:26:24.183Z,71.29
2018-07-12T07:27:24.100Z,71.39
2018-07-12T07:28:24.071Z,71.77
2018-07-12T07:29:24.067Z,72.34
2018-07-12T07:30:24.128Z,71.29
2018-07-12T07:31:23.992Z,71.48
2018-07-12T07:32:23.970Z,71.10
2018-07-12T07:33:23.962Z,70.72
2018-07-12T07:34:23.922Z,71.33
2018-07-12T07:35:23.901Z,71.71
2018-07-12T07:36:23.874Z,72.00
2018-07-12T07:37:23.843Z,72.96
2018-07-12T07:38:23.826Z,72.19
2018-07-12T07:39:23.812Z,71.71
2018-07-12T07:40:23.826Z,72.48
2018-07-12T07:41:23.748Z,72.77
2018-07-12T07:42:23.724Z,72.96
2018-07-12T07:43:23.788Z,72.86
2018-07-12T07:44:23.664Z,73.25
2018-07-12T07:45:23.635Z,73.57
2018-07-12T07:46:23.616Z,74.44
2018-07-12T07:47:23.593Z,73.47
2018-07-12T07:48:23.570Z,73.09
2018-07-12T07:49:23.627Z,73.96
2018-07-12T07:50:41.223Z,73.00
2018-07-12T07:52:26.395Z,73.77
2018-07-12T07:53:26.046Z,72.84
2018-07-12T07:54:26.217Z,73.32
2018-07-12T07:55:25.980Z,74.09
2018-07-12T07:56:25.961Z,73.80
2018-07-12T07:57:25.911Z,73.84
2018-07-12T07:58:25.884Z,74.99
2018-07-12T07:59:25.857Z,74.32
2018-07-12T08:00:25.836Z,74.38
2018-07-12T08:01:25.813Z,74.41
2018-07-12T08:02:25.788Z,74.51
2018-07-12T08:03:25.820Z,74.51
2018-07-12T08:04:25.739Z,74.32
2018-07-12T08:05:25.719Z,72.97
2018-07-12T08:06:25.785Z,74.99
2018-07-12T08:07:25.723Z,74.45
2018-07-12T08:08:25.627Z,74.93
2018-07-12T08:09:25.649Z,76.28
2018-07-12T08:10:25.581Z,75.13
2018-07-12T08:11:25.555Z,75.61
2018-07-12T08:12:25.537Z,75.90
2018-07-12T08:13:25.510Z,74.71
2018-07-12T08:14:25.487Z,75.32
2018-07-12T08:15:25.469Z,76.09
2018-07-12T08:16:25.437Z,75.99
2018-07-12T08:17:25.412Z,75.80
2018-07-12T08:18:25.386Z,75.90
2018-07-12T08:19:25.361Z,76.67
2018-07-12T08:20:25.333Z,76.42
2018-07-12T08:21:25.316Z,76.71
2018-07-12T08:22:25.288Z,75.65
2018-07-12T08:23:25.300Z,74.68
2018-07-12T08:24:25.254Z,75.93
2018-07-12T08:25:25.258Z,75.71
2018-07-12T08:26:25.264Z,75.13
2018-07-12T08:27:25.169Z,74.84
2018-07-12T08:28:25.146Z,74.93
2018-07-12T08:29:25.165Z,74.74
2018-07-12T08:30:25.106Z,75.42
2018-07-12T08:31:25.075Z,74.58
2018-07-12T08:32:25.044Z,75.32
2018-07-12T08:33:25.129Z,76.51
2018-07-12T08:34:25.008Z,75.84
2018-07-12T08:35:25.021Z,76.23
2018-07-12T08:36:24.952Z,76.32
2018-07-12T08:37:24.930Z,75.59
2018-07-12T08:38:24.903Z,76.36
2018-07-12T08:39:24.910Z,76.51
2018-07-12T08:40:24.849Z,76.93
2018-07-12T08:41:24.828Z,76.42
2018-07-12T08:42:24.861Z,75.07
2018-07-12T08:43:24.782Z,77.23
2018-07-12T08:44:24.840Z,76.45
2018-07-12T08:45:24.743Z,76.80
2018-07-12T08:46:24.716Z,76.42
2018-07-12T08:47:24.727Z,76.51
2018-07-12T08:48:24.708Z,76.55
2018-07-12T08:49:24.630Z,76.71
2018-07-12T08:50:24.689Z,76.45
2018-07-12T08:51:24.592Z,76.23
2018-07-12T08:52:24.558Z,76.42
2018-07-12T08:53:24.542Z,76.36
2018-07-12T08:54:24.513Z,76.36
2018-07-12T08:55:24.486Z,77.13
2018-07-12T08:56:24.471Z,76.68
2018-07-12T08:57:24.435Z,76.20
2018-07-12T08:58:24.415Z,77.07
2018-07-12T08:59:24.398Z,77.17
2018-07-12T09:00:24.377Z,77.36
2018-07-12T09:01:24.348Z,76.92
2018-07-12T09:02:24.322Z,77.11
2018-07-12T09:03:24.304Z,77.83
2018-07-12T09:04:24.271Z,77.73
2018-07-12T09:05:24.309Z,76.28
2018-07-12T09:06:24.228Z,77.25
2018-07-12T09:07:24.210Z,77.76
2018-07-12T09:08:24.196Z,78.06
2018-07-12T09:09:24.156Z,77.86
2018-07-12T09:10:24.129Z,78.73
2018-07-12T09:11:24.125Z,78.38
2018-07-12T09:12:24.084Z,79.12
2018-07-12T09:13:24.071Z,78.44
2018-07-12T09:14:24.045Z,78.54
2018-07-12T09:15:24.026Z,78.87
2018-07-12T09:16:25.928Z,78.48
2018-07-12T09:17:23.978Z,78.87
2018-07-12T09:18:23.951Z,78.54
2018-07-12T09:19:23.936Z,78.44
2018-07-12T09:20:23.908Z,78.92
2018-07-12T09:21:23.876Z,79.22
2018-07-12T09:22:23.878Z,78.64
2018-07-12T09:23:23.855Z,78.79
2018-07-12T09:24:23.813Z,78.69
2018-07-12T09:25:23.808Z,79.80
2018-07-12T09:26:25.438Z,79.02
2018-07-12T09:27:25.435Z,78.54
2018-07-12T09:28:23.731Z,79.50
2018-07-12T09:29:23.709Z,79.22
2018-07-12T09:30:23.699Z,79.80
2018-07-12T09:31:23.663Z,79.60
2018-07-12T09:32:23.637Z,78.92
2018-07-12T09:33:26.407Z,79.06
2018-07-12T09:34:23.588Z,80.03
2018-07-12T09:35:23.569Z,78.15
2018-07-12T09:36:23.556Z,78.48
2018-07-12T09:37:23.534Z,79.16
2018-07-12T09:38:23.505Z,79.60
2018-07-12T09:39:23.482Z,78.83
2018-07-12T09:40:25.438Z,79.60
2018-07-12T09:41:24.957Z,78.69
2018-07-12T09:42:23.410Z,78.85
2018-07-12T09:43:23.402Z,79.17
2018-07-12T09:44:23.362Z,79.37
2018-07-12T09:45:23.349Z,78.44
2018-07-12T09:46:23.323Z,80.86
2018-07-12T09:47:23.349Z,79.70
2018-07-12T09:48:25.956Z,79.64
2018-07-12T09:49:23.277Z,79.25
2018-07-12T09:50:23.231Z,79.35
2018-07-12T09:51:23.207Z,79.35
2018-07-12T09:52:23.197Z,79.39
2018-07-12T09:53:23.165Z,79.24
2018-07-12T09:54:23.145Z,79.62
2018-07-12T09:55:23.124Z,78.75
2018-07-12T09:56:25.023Z,79.29
2018-07-12T09:57:23.094Z,79.20
2018-07-12T09:58:23.092Z,79.04
2018-07-12T09:59:23.028Z,79.35
2018-07-12T10:00:24.948Z,78.77
2018-07-12T10:01:23.044Z,78.67
2018-07-12T10:02:25.047Z,78.64
2018-07-12T10:03:22.957Z,78.96
2018-07-12T10:04:22.924Z,79.41
2018-07-12T10:05:25.431Z,79.41
2018-07-12T10:06:22.874Z,79.80
2018-07-12T10:07:22.852Z,79.12
2018-07-12T10:08:22.837Z,79.50
2018-07-12T10:09:22.812Z,80.08
2018-07-12T10:10:24.612Z,79.83
2018-07-12T10:11:22.768Z,79.74
2018-07-12T10:12:22.753Z,79.83
2018-07-12T10:13:22.718Z,79.83
2018-07-12T10:14:22.701Z,79.35
2018-07-12T10:15:22.707Z,79.10
2018-07-12T10:16:22.654Z,79.43
2018-07-12T10:17:22.639Z,79.43
2018-07-12T10:18:22.612Z,79.04
2018-07-12T10:19:22.586Z,79.72
2018-07-12T10:20:22.560Z,79.14
2018-07-12T10:21:22.550Z,79.43
2018-07-12T10:22:22.522Z,79.58
2018-07-12T10:23:24.495Z,79.49
2018-07-12T10:24:22.483Z,79.87
2018-07-12T10:25:22.481Z,79.20
2018-07-12T10:26:22.437Z,79.14
2018-07-12T10:27:22.415Z,79.24
2018-07-12T10:28:22.384Z,79.24
2018-07-12T10:29:22.370Z,79.49
2018-07-12T10:30:22.353Z,79.20
2018-07-12T10:31:22.327Z,79.20
2018-07-12T10:32:22.307Z,78.91
2018-07-12T10:33:22.297Z,79.52
2018-07-12T10:34:22.252Z,79.14
2018-07-12T10:35:22.240Z,79.57
2018-07-12T10:36:22.211Z,78.69
2018-07-12T10:37:22.205Z,78.91
2018-07-12T10:38:22.169Z,78.71
2018-07-12T10:39:22.145Z,79.39
2018-07-12T10:40:22.123Z,79.39
2018-07-12T10:41:22.195Z,79.58
2018-07-12T10:42:22.095Z,79.43
2018-07-12T10:43:22.057Z,79.14
2018-07-12T10:44:22.075Z,79.33
2018-07-12T10:45:23.946Z,79.33
2018-07-12T10:46:21.992Z,79.17
2018-07-12T10:47:21.976Z,78.79
2018-07-12T10:48:21.952Z,78.99
2018-07-12T10:49:21.932Z,78.79
2018-07-12T10:50:21.913Z,79.17
2018-07-12T10:51:21.894Z,78.69
2018-07-12T10:52:21.854Z,78.79
2018-07-12T10:53:21.842Z,77.73
2018-07-12T10:54:21.815Z,78.69
2018-07-12T10:55:21.846Z,78.50
2018-07-12T10:56:21.778Z,78.79
2018-07-12T10:57:21.756Z,78.41
2018-07-12T10:58:21.751Z,78.79
2018-07-12T10:59:21.704Z,78.79
2018-07-12T11:00:21.682Z,79.08
2018-07-12T11:01:21.729Z,78.50
2018-07-12T11:02:21.643Z,78.15
2018-07-12T11:03:21.618Z,78.15
2018-07-12T11:04:21.604Z,78.05
2018-07-12T11:05:21.620Z,78.19
2018-07-12T11:06:21.566Z,78.58
2018-07-12T11:07:21.536Z,78.19
2018-07-12T11:08:21.523Z,77.90
2018-07-12T11:09:23.492Z,78.34
2018-07-12T11:10:21.520Z,78.31
2018-07-12T11:11:21.448Z,78.21
2018-07-12T11:12:21.470Z,78.50
2018-07-12T11:13:21.408Z,77.86
2018-07-12T11:14:21.382Z,78.67
2018-07-12T11:15:21.368Z,78.87
2018-07-12T11:16:21.345Z,77.94
2018-07-12T11:17:21.326Z,77.26
2018-07-12T11:18:21.299Z,77.70
2018-07-12T11:19:21.280Z,77.80
2018-07-12T11:20:21.263Z,77.70
2018-07-12T11:21:21.239Z,77.70
2018-07-12T11:22:21.221Z,78.09
2018-07-12T11:23:21.201Z,77.75
2018-07-12T11:24:21.227Z,77.75
2018-07-12T11:25:21.160Z,78.17
2018-07-12T11:26:21.140Z,77.62
2018-07-12T11:27:21.109Z,77.24
2018-07-12T11:28:21.138Z,77.49
2018-07-12T11:29:21.067Z,78.17
2018-07-12T11:30:21.121Z,77.26
2018-07-12T11:31:21.098Z,77.16
2018-07-12T11:32:21.000Z,77.12
2018-07-12T11:33:20.993Z,77.90
2018-07-12T11:34:20.968Z,77.86
2018-07-12T11:35:20.951Z,78.48
2018-07-12T11:36:20.943Z,77.32
2018-07-12T11:37:20.920Z,77.45
2018-07-12T11:38:20.932Z,76.65
2018-07-12T11:39:20.928Z,75.14
2018-07-12T11:40:20.848Z,72.94
2018-07-12T11:41:20.825Z,71.26
2018-07-12T11:42:20.843Z,68.96
2018-07-12T11:43:20.781Z,69.13
2018-07-12T11:44:20.771Z,69.65
2018-07-12T11:45:20.770Z,65.98
2018-07-12T11:46:20.722Z,65.66
2018-07-12T11:47:20.700Z,67.93
2018-07-12T11:48:20.700Z,70.42
2018-07-12T11:49:20.661Z,71.62
2018-07-12T11:50:22.475Z,69.87
2018-07-12T11:51:20.621Z,68.96
2018-07-12T11:52:20.666Z,66.37
2018-07-12T11:53:20.632Z,65.17
2018-07-12T11:54:22.483Z,62.73
2018-07-12T11:55:20.550Z,62.47
2018-07-12T11:56:20.553Z,61.50
2018-07-12T11:57:20.549Z,61.04
2018-07-12T11:58:20.559Z,60.85
2018-07-12T11:59:20.475Z,60.75
2018-07-12T12:00:20.465Z,62.99
2018-07-12T12:01:20.455Z,63.16
2018-07-12T12:02:20.427Z,64.81
2018-07-12T12:03:20.398Z,66.99
2018-07-12T12:04:20.427Z,67.73
2018-07-12T12:05:20.576Z,65.20
2018-07-12T12:06:21.972Z,65.95
2018-07-12T12:07:20.389Z,63.48
2018-07-12T12:08:20.322Z,60.69
2018-07-12T12:09:20.311Z,59.28
2018-07-12T12:10:20.352Z,57.59
2018-07-12T12:11:20.263Z,56.46
2018-07-12T12:12:20.259Z,56.00
2018-07-12T12:13:20.235Z,56.22
2018-07-12T12:14:20.287Z,55.27
2018-07-12T12:15:20.214Z,54.22
2018-07-12T12:16:20.186Z,53.76
2018-07-12T12:17:20.156Z,53.86
2018-07-12T12:18:20.144Z,53.69
2018-07-12T12:19:20.141Z,54.25
2018-07-12T12:20:20.106Z,53.91
2018-07-12T12:21:20.090Z,53.59
2018-07-12T12:22:20.076Z,52.81
2018-07-12T12:23:20.069Z,52.98
2018-07-12T12:24:20.050Z,53.64
2018-07-12T12:25:20.029Z,54.13
2018-07-12T12:26:20.013Z,54.10
2018-07-12T12:27:20.004Z,55.66
2018-07-12T12:28:19.988Z,55.44
2018-07-12T12:29:19.961Z,56.61
2018-07-12T12:30:19.956Z,55.13
2018-07-12T12:31:19.944Z,53.52
2018-07-12T12:32:20.009Z,55.93
2018-07-12T12:33:19.908Z,56.58
2018-07-12T12:34:19.892Z,56.77
2018-07-12T12:35:19.875Z,57.17
2018-07-12T12:36:19.878Z,56.15
2018-07-12T12:37:19.850Z,54.35
2018-07-12T12:38:19.834Z,53.66
2018-07-12T12:39:19.826Z,54.22
2018-07-12T12:40:19.813Z,53.81
2018-07-12T12:41:19.804Z,56.33
2018-07-12T12:42:19.789Z,57.11
2018-07-12T12:43:19.798Z,56.58
2018-07-12T12:44:20.176Z,55.63
2018-07-12T12:45:19.738Z,52.98
2018-07-12T12:46:19.719Z,53.78
2018-07-12T12:47:19.731Z,56.20
2018-07-12T12:48:19.693Z,56.56
2018-07-12T12:49:19.702Z,57.24
2018-07-12T12:50:19.674Z,58.02
2018-07-12T12:51:19.653Z,56.64
2018-07-12T12:52:19.635Z,54.15
2018-07-12T12:53:19.620Z,52.44